ACA856 CYOW-CYXU
Flight info
| Callsign | ACA856 |
|---|---|
| Flight time | 0h 49m |
| Altitude | 34000 |
| Route | TUKIR Q806 ILUSI DCT YYZ DCT LETOR |
| Aircraft | MD82/M-SDFGIJ1RWY/S |
Departure
| Time | 2026-04-27 01:15 |
|---|---|
| Airport | Ottawa Macdonald-Cartier International Airport (CYOW) |
Arrival
| Time | 2026-04-27 02:04 |
|---|---|
| Airport | London International Airport (CYXU) |
| Time | Latitude | Longitude | Altitude | Speed | Heading |
|---|---|---|---|---|---|
| 2026-04-27 00:50 | 45.32016 | -75.66443 | 382 ft | 0 kts | 327° |
| 2026-04-27 01:07 | 45.32005 | -75.66433 | 382 ft | 2 kts | 327° |
| 2026-04-27 01:07 | 45.31991 | -75.66420 | 382 ft | 2 kts | 327° |
| 2026-04-27 01:08 | 45.31978 | -75.66406 | 382 ft | 2 kts | 305° |
| 2026-04-27 01:08 | 45.31974 | -75.66384 | 382 ft | 2 kts | 225° |
| 2026-04-27 01:08 | 45.31977 | -75.66380 | 382 ft | 0 kts | 220° |
| 2026-04-27 01:11 | 45.31970 | -75.66388 | 382 ft | 3 kts | 221° |
| 2026-04-27 01:12 | 45.31949 | -75.66415 | 384 ft | 6 kts | 221° |
| 2026-04-27 01:12 | 45.31911 | -75.66463 | 380 ft | 9 kts | 222° |
| 2026-04-27 01:12 | 45.31860 | -75.66543 | 379 ft | 12 kts | 244° |
| 2026-04-27 01:12 | 45.31806 | -75.66623 | 378 ft | 12 kts | 216° |
| 2026-04-27 01:13 | 45.31741 | -75.66729 | 374 ft | 16 kts | 234° |
| 2026-04-27 01:13 | 45.31675 | -75.66861 | 375 ft | 17 kts | 235° |
| 2026-04-27 01:13 | 45.31608 | -75.67001 | 375 ft | 17 kts | 237° |
| 2026-04-27 01:13 | 45.31516 | -75.67094 | 377 ft | 16 kts | 198° |
| 2026-04-27 01:14 | 45.31409 | -75.67145 | 378 ft | 16 kts | 194° |
| 2026-04-27 01:14 | 45.31354 | -75.67102 | 378 ft | 1 kts | 94° |
| 2026-04-27 01:14 | 45.31354 | -75.67082 | 378 ft | 3 kts | 87° |
| 2026-04-27 01:14 | 45.31380 | -75.67021 | 377 ft | 19 kts | 56° |
| 2026-04-27 01:15 | 45.31580 | -75.66580 | 373 ft | 91 kts | 57° |
| 2026-04-27 01:15 | 45.32060 | -75.65522 | 373 ft | 161 kts | 56° |
| 2026-04-27 01:15 | 45.32757 | -75.64081 | 902 ft | 180 kts | 56° |
| 2026-04-27 01:15 | 45.33469 | -75.62682 | 2064 ft | 174 kts | 54° |
| 2026-04-27 01:16 | 45.34238 | -75.61229 | 2731 ft | 194 kts | 52° |
| 2026-04-27 01:16 | 45.35071 | -75.59740 | 3797 ft | 182 kts | 50° |
| 2026-04-27 01:16 | 45.35829 | -75.58317 | 4694 ft | 189 kts | 52° |
| 2026-04-27 01:16 | 45.36923 | -75.57110 | 5023 ft | 218 kts | 16° |
| 2026-04-27 01:17 | 45.38458 | -75.57171 | 5663 ft | 231 kts | 339° |
| 2026-04-27 01:17 | 45.39777 | -75.58583 | 6297 ft | 253 kts | 307° |
| 2026-04-27 01:17 | 45.40455 | -75.60979 | 6971 ft | 273 kts | 277° |
| 2026-04-27 01:17 | 45.40231 | -75.63680 | 7843 ft | 281 kts | 249° |
| 2026-04-27 01:18 | 45.39195 | -75.66061 | 8794 ft | 286 kts | 232° |
| 2026-04-27 01:18 | 45.38011 | -75.68325 | 9705 ft | 291 kts | 236° |
| 2026-04-27 01:18 | 45.36949 | -75.70802 | 10529 ft | 298 kts | 242° |
| 2026-04-27 01:18 | 45.35984 | -75.73567 | 10758 ft | 325 kts | 247° |
| 2026-04-27 01:19 | 45.35091 | -75.76654 | 10969 ft | 350 kts | 250° |
| 2026-04-27 01:19 | 45.34259 | -75.79997 | 11418 ft | 364 kts | 253° |
| 2026-04-27 01:19 | 45.33489 | -75.83435 | 12252 ft | 366 kts | 255° |
| 2026-04-27 01:19 | 45.32759 | -75.86912 | 13133 ft | 368 kts | 256° |
| 2026-04-27 01:20 | 45.32047 | -75.90424 | 13944 ft | 373 kts | 257° |
| 2026-04-27 01:20 | 45.31334 | -75.93998 | 14668 ft | 377 kts | 257° |
| 2026-04-27 01:20 | 45.30617 | -75.97602 | 15456 ft | 380 kts | 257° |
| 2026-04-27 01:20 | 45.29892 | -76.01218 | 16237 ft | 382 kts | 257° |
| 2026-04-27 01:21 | 45.29157 | -76.04861 | 16971 ft | 386 kts | 257° |
| 2026-04-27 01:21 | 45.28407 | -76.08546 | 17710 ft | 389 kts | 257° |
| 2026-04-27 01:21 | 45.27637 | -76.12249 | 18431 ft | 393 kts | 257° |
| 2026-04-27 01:21 | 45.26853 | -76.15983 | 19049 ft | 396 kts | 257° |
| 2026-04-27 01:22 | 45.26074 | -76.19693 | 19664 ft | 398 kts | 257° |
| 2026-04-27 01:22 | 45.25258 | -76.23517 | 20282 ft | 402 kts | 254° |
| 2026-04-27 01:22 | 45.24101 | -76.27119 | 20850 ft | 410 kts | 245° |
| 2026-04-27 01:22 | 45.22696 | -76.30662 | 21411 ft | 414 kts | 244° |
| 2026-04-27 01:23 | 45.21233 | -76.34202 | 21965 ft | 417 kts | 243° |
| 2026-04-27 01:23 | 45.19758 | -76.37769 | 22514 ft | 420 kts | 244° |
| 2026-04-27 01:23 | 45.18285 | -76.41367 | 23098 ft | 423 kts | 244° |
| 2026-04-27 01:23 | 45.16821 | -76.44995 | 23628 ft | 426 kts | 244° |
| 2026-04-27 01:24 | 45.15362 | -76.48664 | 24104 ft | 429 kts | 245° |
| 2026-04-27 01:24 | 45.13906 | -76.52359 | 24572 ft | 431 kts | 245° |
| 2026-04-27 01:24 | 45.12447 | -76.56073 | 25047 ft | 432 kts | 245° |
| 2026-04-27 01:24 | 45.10987 | -76.59794 | 25512 ft | 434 kts | 245° |
| 2026-04-27 01:25 | 45.09516 | -76.63537 | 25926 ft | 437 kts | 245° |
| 2026-04-27 01:25 | 45.08036 | -76.67296 | 26393 ft | 438 kts | 245° |
| 2026-04-27 01:25 | 45.06545 | -76.71073 | 26848 ft | 440 kts | 245° |
| 2026-04-27 01:25 | 45.05065 | -76.74818 | 27276 ft | 443 kts | 245° |
| 2026-04-27 01:26 | 45.03556 | -76.78621 | 27688 ft | 445 kts | 245° |
| 2026-04-27 01:26 | 45.02022 | -76.82445 | 28134 ft | 447 kts | 245° |
| 2026-04-27 01:26 | 45.00482 | -76.86272 | 28591 ft | 449 kts | 245° |
| 2026-04-27 01:26 | 44.98941 | -76.90114 | 29004 ft | 451 kts | 245° |
| 2026-04-27 01:27 | 44.97396 | -76.93983 | 29424 ft | 452 kts | 246° |
| 2026-04-27 01:27 | 44.95849 | -76.97854 | 30034 ft | 450 kts | 245° |
| 2026-04-27 01:27 | 44.94309 | -77.01667 | 30664 ft | 445 kts | 246° |
| 2026-04-27 01:27 | 44.92771 | -77.05448 | 31171 ft | 442 kts | 246° |
| 2026-04-27 01:28 | 44.91243 | -77.09204 | 31598 ft | 441 kts | 246° |
| 2026-04-27 01:28 | 44.89717 | -77.12966 | 31982 ft | 441 kts | 246° |
| 2026-04-27 01:28 | 44.88202 | -77.16715 | 32389 ft | 440 kts | 246° |
| 2026-04-27 01:28 | 44.86690 | -77.20454 | 32808 ft | 438 kts | 247° |
| 2026-04-27 01:29 | 44.85200 | -77.24137 | 33217 ft | 437 kts | 247° |
| 2026-04-27 01:29 | 44.83694 | -77.27860 | 33604 ft | 436 kts | 247° |
| 2026-04-27 01:29 | 44.82193 | -77.31569 | 33954 ft | 436 kts | 247° |
| 2026-04-27 01:29 | 44.80686 | -77.35293 | 34108 ft | 439 kts | 247° |
| 2026-04-27 01:30 | 44.79174 | -77.39028 | 34189 ft | 439 kts | 247° |
| 2026-04-27 01:30 | 44.76153 | -77.46468 | 34229 ft | 436 kts | 247° |
| 2026-04-27 01:31 | 44.73125 | -77.53845 | 34244 ft | 434 kts | 247° |
| 2026-04-27 01:31 | 44.70091 | -77.61178 | 34243 ft | 433 kts | 247° |
| 2026-04-27 01:32 | 44.67082 | -77.68512 | 34248 ft | 434 kts | 248° |
| 2026-04-27 01:32 | 44.64094 | -77.75821 | 34243 ft | 434 kts | 247° |
| 2026-04-27 01:33 | 44.61052 | -77.83163 | 34246 ft | 435 kts | 247° |
| 2026-04-27 01:33 | 44.57993 | -77.90487 | 34245 ft | 435 kts | 247° |
| 2026-04-27 01:34 | 44.54945 | -77.97806 | 34248 ft | 434 kts | 247° |
| 2026-04-27 01:34 | 44.51911 | -78.05107 | 34246 ft | 433 kts | 247° |
| 2026-04-27 01:35 | 44.48876 | -78.12406 | 34243 ft | 432 kts | 247° |
| 2026-04-27 01:35 | 44.45866 | -78.19633 | 34246 ft | 432 kts | 247° |
| 2026-04-27 01:36 | 44.42838 | -78.26891 | 34236 ft | 432 kts | 247° |
| 2026-04-27 01:36 | 44.39782 | -78.34137 | 34240 ft | 432 kts | 247° |
| 2026-04-27 01:37 | 44.36713 | -78.41366 | 34237 ft | 432 kts | 246° |
| 2026-04-27 01:37 | 44.33648 | -78.48598 | 34238 ft | 432 kts | 246° |
| 2026-04-27 01:38 | 44.30586 | -78.55829 | 34240 ft | 432 kts | 246° |
| 2026-04-27 01:38 | 44.27522 | -78.63058 | 34237 ft | 432 kts | 247° |
| 2026-04-27 01:39 | 44.24456 | -78.70287 | 34244 ft | 433 kts | 246° |
| 2026-04-27 01:39 | 44.21390 | -78.77503 | 34248 ft | 433 kts | 246° |
| 2026-04-27 01:40 | 44.18321 | -78.84661 | 34246 ft | 433 kts | 246° |
| 2026-04-27 01:40 | 44.15241 | -78.91860 | 34247 ft | 433 kts | 246° |
| 2026-04-27 01:41 | 44.12265 | -78.99124 | 34243 ft | 431 kts | 248° |
| 2026-04-27 01:41 | 44.09406 | -79.06450 | 34246 ft | 430 kts | 248° |
| 2026-04-27 01:42 | 44.06560 | -79.13777 | 34249 ft | 431 kts | 248° |
| 2026-04-27 01:42 | 44.03697 | -79.21095 | 34247 ft | 431 kts | 248° |
| 2026-04-27 01:43 | 44.00823 | -79.28389 | 34242 ft | 430 kts | 248° |
| 2026-04-27 01:43 | 43.99376 | -79.32070 | 33676 ft | 441 kts | 248° |
| 2026-04-27 01:43 | 43.97916 | -79.35785 | 33458 ft | 437 kts | 248° |
| 2026-04-27 01:43 | 43.96466 | -79.39458 | 33341 ft | 431 kts | 248° |
| 2026-04-27 01:44 | 43.95032 | -79.43075 | 33389 ft | 422 kts | 248° |
| 2026-04-27 01:44 | 43.93634 | -79.46580 | 33181 ft | 409 kts | 248° |
| 2026-04-27 01:44 | 43.92245 | -79.50058 | 32401 ft | 415 kts | 247° |
| 2026-04-27 01:44 | 43.90841 | -79.53586 | 31659 ft | 419 kts | 246° |
| 2026-04-27 01:45 | 43.89431 | -79.57127 | 30962 ft | 421 kts | 246° |
| 2026-04-27 01:45 | 43.88008 | -79.60688 | 30269 ft | 422 kts | 246° |
| 2026-04-27 01:45 | 43.86579 | -79.64254 | 29493 ft | 424 kts | 246° |
| 2026-04-27 01:45 | 43.85142 | -79.67830 | 28784 ft | 425 kts | 245° |
| 2026-04-27 01:46 | 43.83708 | -79.71395 | 28142 ft | 422 kts | 245° |
| 2026-04-27 01:46 | 43.82287 | -79.74925 | 27470 ft | 418 kts | 245° |
| 2026-04-27 01:46 | 43.80899 | -79.78373 | 26828 ft | 414 kts | 245° |
| 2026-04-27 01:46 | 43.79505 | -79.81844 | 26173 ft | 411 kts | 245° |
| 2026-04-27 01:47 | 43.78122 | -79.85290 | 25524 ft | 408 kts | 245° |
| 2026-04-27 01:47 | 43.76779 | -79.88641 | 24921 ft | 405 kts | 245° |
| 2026-04-27 01:47 | 43.75390 | -79.92098 | 24558 ft | 398 kts | 245° |
| 2026-04-27 01:47 | 43.74048 | -79.95434 | 24393 ft | 397 kts | 245° |
| 2026-04-27 01:48 | 43.72697 | -79.98777 | 24320 ft | 399 kts | 245° |
| 2026-04-27 01:48 | 43.71332 | -80.02131 | 24284 ft | 401 kts | 245° |
| 2026-04-27 01:48 | 43.69956 | -80.05498 | 24267 ft | 402 kts | 245° |
| 2026-04-27 01:48 | 43.68579 | -80.08867 | 24260 ft | 403 kts | 245° |
| 2026-04-27 01:49 | 43.67203 | -80.12238 | 24253 ft | 404 kts | 245° |
| 2026-04-27 01:49 | 43.65824 | -80.15617 | 24254 ft | 404 kts | 245° |
| 2026-04-27 01:49 | 43.64446 | -80.18993 | 24250 ft | 403 kts | 244° |
| 2026-04-27 01:49 | 43.63072 | -80.22359 | 24244 ft | 402 kts | 244° |
| 2026-04-27 01:50 | 43.61702 | -80.25717 | 24240 ft | 401 kts | 244° |
| 2026-04-27 01:50 | 43.60333 | -80.29072 | 24242 ft | 402 kts | 244° |
| 2026-04-27 01:50 | 43.58959 | -80.32438 | 24236 ft | 402 kts | 244° |
| 2026-04-27 01:50 | 43.57582 | -80.35810 | 23962 ft | 409 kts | 244° |
| 2026-04-27 01:51 | 43.56199 | -80.39196 | 23806 ft | 402 kts | 244° |
| 2026-04-27 01:51 | 43.54858 | -80.42469 | 23622 ft | 391 kts | 244° |
| 2026-04-27 01:51 | 43.53502 | -80.45772 | 22754 ft | 394 kts | 244° |
| 2026-04-27 01:51 | 43.52167 | -80.49009 | 21719 ft | 390 kts | 244° |
| 2026-04-27 01:52 | 43.50834 | -80.52213 | 20698 ft | 382 kts | 243° |
| 2026-04-27 01:52 | 43.49522 | -80.55360 | 19710 ft | 375 kts | 243° |
| 2026-04-27 01:52 | 43.48213 | -80.58506 | 18787 ft | 382 kts | 243° |
| 2026-04-27 01:52 | 43.46891 | -80.61698 | 17763 ft | 384 kts | 243° |
| 2026-04-27 01:53 | 43.45567 | -80.64899 | 16729 ft | 386 kts | 243° |
| 2026-04-27 01:53 | 43.44246 | -80.68092 | 15704 ft | 375 kts | 243° |
| 2026-04-27 01:53 | 43.42986 | -80.71123 | 14702 ft | 357 kts | 242° |
| 2026-04-27 01:53 | 43.41771 | -80.74044 | 13707 ft | 348 kts | 242° |
| 2026-04-27 01:54 | 43.40572 | -80.76926 | 12678 ft | 352 kts | 242° |
| 2026-04-27 01:54 | 43.39345 | -80.79881 | 11689 ft | 358 kts | 242° |
| 2026-04-27 01:54 | 43.38133 | -80.82792 | 10696 ft | 341 kts | 242° |
| 2026-04-27 01:54 | 43.36979 | -80.85556 | 9674 ft | 327 kts | 242° |
| 2026-04-27 01:55 | 43.35887 | -80.88190 | 8648 ft | 316 kts | 242° |
| 2026-04-27 01:55 | 43.34817 | -80.90782 | 7650 ft | 308 kts | 241° |
| 2026-04-27 01:55 | 43.33768 | -80.93324 | 6677 ft | 303 kts | 240° |
| 2026-04-27 01:55 | 43.32726 | -80.95810 | 5673 ft | 298 kts | 238° |
| 2026-04-27 01:56 | 43.30591 | -81.00598 | 4965 ft | 287 kts | 237° |
| 2026-04-27 01:56 | 43.29574 | -81.02928 | 4603 ft | 283 kts | 238° |
| 2026-04-27 01:56 | 43.28587 | -81.05244 | 4283 ft | 279 kts | 239° |
| 2026-04-27 01:57 | 43.27640 | -81.07516 | 4120 ft | 269 kts | 239° |
| 2026-04-27 01:57 | 43.26729 | -81.09728 | 4050 ft | 264 kts | 239° |
| 2026-04-27 01:57 | 43.26139 | -81.11172 | 4027 ft | 259 kts | 239° |
| 2026-04-27 01:57 | 43.25289 | -81.13256 | 4018 ft | 242 kts | 239° |
| 2026-04-27 01:58 | 43.24490 | -81.15212 | 3997 ft | 228 kts | 238° |
| 2026-04-27 01:58 | 43.23739 | -81.17048 | 4003 ft | 214 kts | 239° |
| 2026-04-27 01:58 | 43.23028 | -81.18773 | 3985 ft | 203 kts | 238° |
| 2026-04-27 01:58 | 43.22326 | -81.20472 | 3858 ft | 205 kts | 238° |
| 2026-04-27 01:59 | 43.21601 | -81.22142 | 3770 ft | 203 kts | 232° |
| 2026-04-27 01:59 | 43.20710 | -81.23623 | 3696 ft | 201 kts | 225° |
| 2026-04-27 01:59 | 43.19766 | -81.25024 | 3611 ft | 200 kts | 224° |
| 2026-04-27 01:59 | 43.18816 | -81.26418 | 3530 ft | 200 kts | 224° |
| 2026-04-27 02:00 | 43.17873 | -81.27809 | 3441 ft | 200 kts | 225° |
| 2026-04-27 02:00 | 43.16797 | -81.28956 | 3302 ft | 196 kts | 194° |
| 2026-04-27 02:00 | 43.15502 | -81.28949 | 3151 ft | 183 kts | 151° |
| 2026-04-27 02:00 | 43.14480 | -81.28032 | 3088 ft | 169 kts | 140° |
| 2026-04-27 02:01 | 43.13531 | -81.27117 | 3037 ft | 166 kts | 141° |
| 2026-04-27 02:01 | 43.12626 | -81.26153 | 3044 ft | 162 kts | 135° |
| 2026-04-27 02:01 | 43.11786 | -81.25152 | 2982 ft | 155 kts | 134° |
| 2026-04-27 02:01 | 43.11010 | -81.24205 | 2709 ft | 144 kts | 135° |
| 2026-04-27 02:02 | 43.10288 | -81.23333 | 2515 ft | 135 kts | 134° |
| 2026-04-27 02:02 | 43.09599 | -81.22497 | 2372 ft | 131 kts | 134° |
| 2026-04-27 02:02 | 43.08918 | -81.21672 | 2235 ft | 131 kts | 133° |
| 2026-04-27 02:02 | 43.08232 | -81.20846 | 2054 ft | 131 kts | 134° |
| 2026-04-27 02:03 | 43.07561 | -81.20027 | 1851 ft | 131 kts | 134° |
| 2026-04-27 02:03 | 43.06883 | -81.19189 | 1658 ft | 130 kts | 135° |
| 2026-04-27 02:03 | 43.06209 | -81.18358 | 1437 ft | 134 kts | 134° |
| 2026-04-27 02:03 | 43.05508 | -81.17504 | 1287 ft | 135 kts | 137° |
| 2026-04-27 02:04 | 43.04779 | -81.16660 | 1138 ft | 137 kts | 137° |
| 2026-04-27 02:04 | 43.04069 | -81.15809 | 939 ft | 135 kts | 135° |
| 2026-04-27 02:04 | 43.03415 | -81.15014 | 904 ft | 102 kts | 139° |
| 2026-04-27 02:04 | 43.03153 | -81.14701 | 901 ft | 19 kts | 141° |
| 2026-04-27 02:05 | 43.03045 | -81.14604 | 901 ft | 15 kts | 147° |
| 2026-04-27 02:05 | 43.02957 | -81.14581 | 902 ft | 11 kts | 191° |
| 2026-04-27 02:05 | 43.02912 | -81.14624 | 902 ft | 6 kts | 228° |
| 2026-04-27 02:05 | 43.02899 | -81.14644 | 902 ft | 1 kts | 228° |
| 2026-04-27 02:06 | 43.02890 | -81.14657 | 902 ft | 3 kts | 228° |
| 2026-04-27 02:06 | 43.02885 | -81.14664 | 902 ft | 0 kts | 228° |
| 2026-04-27 02:06 | 43.02884 | -81.14667 | 902 ft | 1 kts | 228° |
| 2026-04-27 02:06 | 43.02878 | -81.14678 | 902 ft | 0 kts | 244° |
| 2026-04-27 02:07 | 43.02875 | -81.14689 | 902 ft | 2 kts | 248° |
| 2026-04-27 02:07 | 43.02874 | -81.14731 | 902 ft | 11 kts | 271° |
| 2026-04-27 02:07 | 43.02876 | -81.14782 | 902 ft | 5 kts | 274° |
| 2026-04-27 02:07 | 43.02876 | -81.14788 | 902 ft | 0 kts | 275° |